createdAt,value
2022-08-07T00:02:35.340Z,3.83
2022-08-07T00:04:05.880Z,5.25
2022-08-07T00:06:33.886Z,3.78
2022-08-07T00:09:16.114Z,3.80
2022-08-07T00:11:54.442Z,3.85
2022-08-07T00:14:30.028Z,3.57
2022-08-07T00:16:59.873Z,4.38
2022-08-07T00:19:59.723Z,5.78
2022-08-07T00:22:24.782Z,5.03
2022-08-07T00:25:07.511Z,6.43
2022-08-07T00:27:52.796Z,7.70
2022-08-07T00:30:27.506Z,6.25
2022-08-07T00:33:02.672Z,4.35
2022-08-07T00:35:30.507Z,4.80
2022-08-07T00:37:59.072Z,7.47
2022-08-07T00:40:39.352Z,6.00
2022-08-07T00:44:01.246Z,5.22
2022-08-07T00:46:02.310Z,4.53
2022-08-07T00:48:31.997Z,4.95
2022-08-07T00:51:00.272Z,6.57
2022-08-07T00:53:39.349Z,4.93
2022-08-07T00:56:15.718Z,5.30
2022-08-07T00:58:43.915Z,4.38
2022-08-07T01:01:16.042Z,5.00
2022-08-07T01:03:55.571Z,6.32
2022-08-07T01:06:28.472Z,5.23
2022-08-07T01:08:58.411Z,4.70
2022-08-07T01:12:09.747Z,6.00
2022-08-07T01:14:21.354Z,6.05
2022-08-07T01:16:56.033Z,7.18
2022-08-07T01:19:23.462Z,5.47
2022-08-07T01:21:53.328Z,4.70
2022-08-07T01:24:25.370Z,5.72
2022-08-07T01:26:53.969Z,4.78
2022-08-07T01:29:27.639Z,5.68
2022-08-07T01:31:59.861Z,7.47
2022-08-07T01:34:31.780Z,5.63
2022-08-07T01:37:03.047Z,5.97
2022-08-07T01:39:39.509Z,6.25
2022-08-07T01:42:39.753Z,8.07
2022-08-07T01:45:02.568Z,5.33
2022-08-07T01:48:20.801Z,5.25
2022-08-07T01:50:22.719Z,6.95
2022-08-07T01:52:58.722Z,5.25
2022-08-07T01:55:34.332Z,4.70
2022-08-07T01:58:29.311Z,5.30
2022-08-07T02:01:10.361Z,6.97
2022-08-07T02:03:51.980Z,6.55
2022-08-07T02:06:31.838Z,5.68
2022-08-07T02:09:04.799Z,8.13
2022-08-07T02:12:04.111Z,4.80
2022-08-07T02:14:36.102Z,6.97
2022-08-07T02:17:24.771Z,5.65
2022-08-07T02:20:06.781Z,6.82
2022-08-07T02:22:41.200Z,6.53
2022-08-07T02:25:17.628Z,6.60
2022-08-07T02:27:56.802Z,7.00
2022-08-07T02:30:25.715Z,7.20
2022-08-07T02:33:03.710Z,7.20
2022-08-07T02:36:29.723Z,6.60
2022-08-07T02:38:32.205Z,7.47
2022-08-07T02:41:04.322Z,6.43
2022-08-07T02:43:36.058Z,6.38
2022-08-07T02:46:07.399Z,6.03
2022-08-07T02:48:35.993Z,6.25
2022-08-07T02:51:28.866Z,8.10
2022-08-07T02:54:01.059Z,8.88
2022-08-07T02:56:31.660Z,6.93
2022-08-07T02:59:03.951Z,7.60
2022-08-07T03:01:36.649Z,7.32
2022-08-07T03:04:13.988Z,6.27
2022-08-07T03:06:45.791Z,7.10
2022-08-07T03:09:44.721Z,6.35
2022-08-07T03:12:04.248Z,7.00
2022-08-07T03:14:36.254Z,6.95
2022-08-07T03:17:05.092Z,7.43
2022-08-07T03:19:37.211Z,6.40
2022-08-07T03:22:06.989Z,7.70
2022-08-07T03:24:35.129Z,9.02
2022-08-07T03:27:08.983Z,7.13
2022-08-07T03:29:49.627Z,8.30
2022-08-07T03:32:25.604Z,7.72
2022-08-07T03:35:16.918Z,9.50
2022-08-07T03:37:53.555Z,5.70
2022-08-07T03:40:30.785Z,6.10
2022-08-07T03:43:00.702Z,5.87
2022-08-07T03:45:31.253Z,5.55
2022-08-07T03:48:09.977Z,7.78
2022-08-07T03:50:38.844Z,6.60
2022-08-07T03:53:06.925Z,8.48
2022-08-07T03:55:58.208Z,7.00
2022-08-07T03:59:07.335Z,6.25
2022-08-07T04:01:11.647Z,4.93
2022-08-07T04:03:53.780Z,6.70
2022-08-07T04:06:37.886Z,6.80
2022-08-07T04:09:15.863Z,5.80
2022-08-07T04:12:26.331Z,6.13
2022-08-07T04:14:38.946Z,7.57
2022-08-07T04:17:19.979Z,8.30
2022-08-07T04:19:54.656Z,5.88
2022-08-07T04:22:27.474Z,5.07
2022-08-07T04:24:58.137Z,8.52
2022-08-07T04:27:36.184Z,6.70
2022-08-07T04:30:21.519Z,6.70
2022-08-07T04:33:08.393Z,6.32
2022-08-07T04:35:38.547Z,8.27
2022-08-07T04:38:11.499Z,5.25
2022-08-07T04:40:52.892Z,6.45
2022-08-07T04:44:12.928Z,5.45
2022-08-07T04:46:34.769Z,6.63
2022-08-07T04:49:07.527Z,7.07
2022-08-07T04:52:07.315Z,7.03
2022-08-07T04:54:50.534Z,6.18
2022-08-07T04:58:12.233Z,7.80
2022-08-07T05:00:32.415Z,5.15
2022-08-07T05:03:16.901Z,7.53
2022-08-07T05:06:19.834Z,5.72
2022-08-07T05:09:02.418Z,6.10
2022-08-07T05:11:56.939Z,6.03
2022-08-07T05:14:55.702Z,6.22
2022-08-07T05:17:50.842Z,6.30
2022-08-07T05:20:13.421Z,4.55
2022-08-07T05:22:42.701Z,7.03
2022-08-07T05:25:26.307Z,7.30
2022-08-07T05:28:15.913Z,5.88
2022-08-07T05:30:48.017Z,4.80
2022-08-07T05:33:18.053Z,6.80
2022-08-07T05:35:52.865Z,5.97
2022-08-07T05:39:00.519Z,4.43
2022-08-07T05:41:16.780Z,4.38
2022-08-07T05:44:12.333Z,5.30
2022-08-07T05:46:38.346Z,5.70
2022-08-07T05:49:11.814Z,4.93
2022-08-07T05:51:46.483Z,6.05
2022-08-07T05:54:31.329Z,6.30
2022-08-07T05:57:06.578Z,5.90
2022-08-07T05:59:56.074Z,6.40
2022-08-07T06:02:30.633Z,5.95
2022-08-07T06:05:05.667Z,4.03
2022-08-07T06:08:09.334Z,5.85
2022-08-07T06:10:21.997Z,4.80
2022-08-07T06:12:50.040Z,5.13
2022-08-07T06:15:20.060Z,6.00
2022-08-07T06:17:53.439Z,4.53
2022-08-07T06:20:25.220Z,4.22
2022-08-07T06:23:01.795Z,5.27
2022-08-07T06:25:36.919Z,5.68
2022-08-07T06:28:09.301Z,6.10
2022-08-07T06:30:45.633Z,5.72
2022-08-07T06:33:18.619Z,5.78
2022-08-07T06:36:12.454Z,4.67
2022-08-07T06:38:38.490Z,4.40
2022-08-07T06:41:12.957Z,5.45
2022-08-07T06:43:46.558Z,5.10
2022-08-07T06:46:31.345Z,4.88
2022-08-07T06:49:00.294Z,4.60
2022-08-07T06:51:35.384Z,5.15
2022-08-07T06:55:32.525Z,3.58
2022-08-07T06:57:08.149Z,4.82
2022-08-07T07:00:12.758Z,4.35
2022-08-07T07:02:53.725Z,5.67
2022-08-07T07:06:04.323Z,4.95
2022-08-07T07:08:06.451Z,5.53
2022-08-07T07:10:35.901Z,5.50
2022-08-07T07:13:17.197Z,5.13
2022-08-07T07:16:18.052Z,3.60
2022-08-07T07:18:57.414Z,2.78
2022-08-07T07:21:40.266Z,3.80
2022-08-07T07:24:17.548Z,8.70
2022-08-07T07:26:52.094Z,3.58
2022-08-07T07:29:57.196Z,3.53
2022-08-07T07:32:14.336Z,5.32
2022-08-07T07:34:46.620Z,4.75
2022-08-07T07:37:45.367Z,3.25
2022-08-07T07:40:15.204Z,4.38
2022-08-07T07:42:51.275Z,5.07
2022-08-07T07:46:37.635Z,6.82
2022-08-07T07:48:34.724Z,5.15
2022-08-07T07:51:07.911Z,2.50
2022-08-07T07:53:51.256Z,3.83
2022-08-07T07:56:30.602Z,3.40
2022-08-07T07:59:01.960Z,2.60
2022-08-07T08:02:01.962Z,3.13
2022-08-07T08:04:25.655Z,4.03
2022-08-07T08:06:54.276Z,3.22
2022-08-07T08:09:29.460Z,4.50
2022-08-07T08:12:02.907Z,3.15
2022-08-07T08:14:34.527Z,3.72
2022-08-07T08:17:55.385Z,3.53
2022-08-07T08:20:17.116Z,4.60
2022-08-07T08:23:10.144Z,3.60
2022-08-07T08:25:59.700Z,2.88
2022-08-07T08:28:38.732Z,3.90
2022-08-07T08:31:16.442Z,5.65
2022-08-07T08:33:55.787Z,3.28
2022-08-07T08:36:30.413Z,5.50
2022-08-07T08:39:02.264Z,4.50
2022-08-07T08:41:59.493Z,5.60
2022-08-07T08:44:51.007Z,2.67
2022-08-07T08:47:25.255Z,3.17
2022-08-07T08:50:39.529Z,4.80
2022-08-07T08:53:13.700Z,2.72
2022-08-07T08:55:54.868Z,2.80
2022-08-07T08:58:54.362Z,4.30
2022-08-07T09:01:50.641Z,3.58
2022-08-07T09:04:33.721Z,6.43
2022-08-07T09:07:26.717Z,5.40
2022-08-07T09:10:31.418Z,3.70
2022-08-07T09:13:35.332Z,2.70
2022-08-07T09:16:33.426Z,2.63
2022-08-07T09:19:50.587Z,2.97
2022-08-07T09:24:31.110Z,3.75
2022-08-07T09:25:17.588Z,2.88
2022-08-07T09:28:05.120Z,6.20
2022-08-07T09:30:58.275Z,2.47
2022-08-07T09:34:07.969Z,2.27
2022-08-07T09:37:00.585Z,4.32
2022-08-07T09:40:05.073Z,3.15
2022-08-07T09:42:58.677Z,2.72
2022-08-07T09:47:52.378Z,5.13
2022-08-07T09:50:00.407Z,3.13
2022-08-07T09:52:16.325Z,2.10
2022-08-07T09:55:29.440Z,2.47
2022-08-07T09:58:42.249Z,3.88
2022-08-07T10:01:51.391Z,3.08
2022-08-07T10:05:01.299Z,2.57
2022-08-07T10:08:04.478Z,3.17
2022-08-07T10:14:01.475Z,3.17
2022-08-07T10:16:53.340Z,4.13
2022-08-07T10:19:40.308Z,4.30
2022-08-07T10:22:33.315Z,2.70
2022-08-07T10:25:42.178Z,3.28
2022-08-07T10:28:32.956Z,3.65
2022-08-07T10:31:32.250Z,3.42
2022-08-07T10:34:32.047Z,3.33
2022-08-07T10:38:09.580Z,3.58
2022-08-07T10:41:06.408Z,3.22
2022-08-07T10:43:44.042Z,3.05
2022-08-07T10:46:19.499Z,2.67
2022-08-07T10:49:24.701Z,3.80
2022-08-07T10:52:33.936Z,4.03
2022-08-07T10:55:21.170Z,5.60
2022-08-07T10:58:13.654Z,2.50
2022-08-07T11:00:56.000Z,3.47
2022-08-07T11:03:52.804Z,3.17
2022-08-07T11:06:33.770Z,2.60
2022-08-07T11:09:11.325Z,3.45
2022-08-07T11:11:51.790Z,2.00
2022-08-07T11:14:59.879Z,4.82
2022-08-07T11:17:46.311Z,3.30
2022-08-07T11:20:38.064Z,3.33
2022-08-07T11:23:38.954Z,3.03
2022-08-07T11:26:16.877Z,3.28
2022-08-07T11:28:58.765Z,3.13
2022-08-07T11:31:57.793Z,3.30
2022-08-07T11:35:06.736Z,2.88
2022-08-07T11:37:58.348Z,3.60
2022-08-07T11:41:02.129Z,2.53
2022-08-07T11:44:11.327Z,2.20
2022-08-07T11:46:51.379Z,4.40
2022-08-07T11:50:25.181Z,2.65
2022-08-07T11:52:55.965Z,2.58
2022-08-07T11:56:09.481Z,2.53
2022-08-07T11:58:56.251Z,2.70
2022-08-07T12:02:01.190Z,2.10
2022-08-07T12:05:20.794Z,2.90
2022-08-07T12:08:03.983Z,1.60
2022-08-07T12:11:08.458Z,2.90
2022-08-07T12:13:58.112Z,3.70
2022-08-07T12:16:30.413Z,4.40
2022-08-07T12:19:22.180Z,3.22
2022-08-07T12:22:39.445Z,3.30
2022-08-07T12:26:03.310Z,2.50
2022-08-07T12:29:01.003Z,3.13
2022-08-07T12:32:02.220Z,3.10
2022-08-07T12:34:29.891Z,3.50
2022-08-07T12:36:59.330Z,3.65
2022-08-07T12:39:42.807Z,4.85
2022-08-07T12:42:13.070Z,3.75
2022-08-07T12:44:45.341Z,3.77
2022-08-07T12:47:37.511Z,3.67
2022-08-07T12:50:39.372Z,4.05
2022-08-07T12:54:03.336Z,2.78
2022-08-07T12:56:29.186Z,3.22
2022-08-07T12:58:59.591Z,3.40
2022-08-07T13:01:32.017Z,3.85
2022-08-07T13:04:19.025Z,3.65
2022-08-07T13:08:14.184Z,3.15
2022-08-07T13:10:51.753Z,3.67
2022-08-07T13:13:50.087Z,2.70
2022-08-07T13:16:41.891Z,3.60
2022-08-07T13:19:45.754Z,4.35
2022-08-07T13:22:29.983Z,4.43
2022-08-07T13:25:08.477Z,2.97
2022-08-07T13:28:12.433Z,3.73
2022-08-07T13:30:41.335Z,3.30
2022-08-07T13:34:33.578Z,3.15
2022-08-07T13:36:45.392Z,3.15
2022-08-07T13:40:32.707Z,3.25
2022-08-07T13:42:39.136Z,5.77
2022-08-07T13:45:40.632Z,4.70
2022-08-07T13:48:06.515Z,4.65
2022-08-07T13:50:55.650Z,4.40
2022-08-07T13:53:36.077Z,3.28
2022-08-07T13:56:36.389Z,3.30
2022-08-07T13:59:24.450Z,4.38
2022-08-07T14:02:04.149Z,6.88
2022-08-07T14:04:38.128Z,4.35
2022-08-07T14:07:10.119Z,3.28
2022-08-07T14:10:12.080Z,4.17
2022-08-07T14:12:54.127Z,3.72
2022-08-07T14:15:36.986Z,5.18
2022-08-07T14:18:28.910Z,4.70
2022-08-07T14:21:21.250Z,7.05
2022-08-07T14:24:08.909Z,4.23
2022-08-07T14:26:50.649Z,5.95
2022-08-07T14:30:07.579Z,4.28
2022-08-07T14:32:12.470Z,4.40
2022-08-07T14:37:36.105Z,4.33
2022-08-07T14:40:18.193Z,7.15
2022-08-07T14:46:00.702Z,3.72
2022-08-07T14:48:32.641Z,5.53
2022-08-07T14:51:07.292Z,4.87
2022-08-07T14:56:33.674Z,3.95
2022-08-07T15:02:31.860Z,4.80
2022-08-07T15:05:02.155Z,3.60
2022-08-07T15:07:51.347Z,4.55
2022-08-07T15:13:18.096Z,3.97
2022-08-07T15:15:53.455Z,6.10
2022-08-07T15:18:33.825Z,3.57
2022-08-07T15:21:59.562Z,5.45
2022-08-07T15:25:14.673Z,3.70
2022-08-07T15:27:06.507Z,4.20
2022-08-07T15:30:04.694Z,2.63
2022-08-07T15:41:23.552Z,3.35
2022-08-07T15:44:01.024Z,4.65
2022-08-07T15:46:39.207Z,4.87
2022-08-07T15:49:17.369Z,5.40
2022-08-07T15:54:34.027Z,6.65
2022-08-07T15:57:03.349Z,5.18
2022-08-07T15:59:39.898Z,5.47
2022-08-07T16:02:21.346Z,3.85
2022-08-07T16:04:59.559Z,4.85
2022-08-07T16:08:32.924Z,3.78
2022-08-07T16:10:21.880Z,6.50
2022-08-07T16:13:17.941Z,3.43
2022-08-07T16:16:43.025Z,3.20
2022-08-07T16:19:42.049Z,12.38
2022-08-07T16:22:36.377Z,11.45
2022-08-07T16:25:54.534Z,5.95
2022-08-07T16:30:07.298Z,2.67
2022-08-07T16:31:57.623Z,4.18
2022-08-07T16:34:53.570Z,6.60
2022-08-07T16:38:07.100Z,5.18
2022-08-07T16:41:05.540Z,6.40
2022-08-07T16:44:06.489Z,2.70
2022-08-07T16:47:05.523Z,2.63
2022-08-07T16:50:20.545Z,3.78
2022-08-07T16:52:55.610Z,3.85
2022-08-07T16:56:05.522Z,3.10
2022-08-07T16:59:14.724Z,4.17
2022-08-07T17:02:05.183Z,5.43
2022-08-07T17:04:51.081Z,5.30
2022-08-07T17:07:55.899Z,6.90
2022-08-07T17:10:33.782Z,4.38
2022-08-07T17:13:16.057Z,4.03
2022-08-07T17:16:12.109Z,4.97
2022-08-07T17:18:38.989Z,4.00
2022-08-07T17:21:18.907Z,6.20
2022-08-07T17:24:23.810Z,7.32
2022-08-07T17:27:19.680Z,4.37
2022-08-07T17:30:15.158Z,3.88
2022-08-07T17:34:09.757Z,3.65
2022-08-07T17:36:26.032Z,5.03
2022-08-07T17:39:10.337Z,4.72
2022-08-07T17:42:02.374Z,8.00
2022-08-07T17:44:54.584Z,7.40
2022-08-07T17:47:42.145Z,7.18
2022-08-07T17:50:22.712Z,4.60
2022-08-07T17:53:00.529Z,6.43
2022-08-07T17:55:56.590Z,6.27
2022-08-07T17:58:33.080Z,4.00
2022-08-07T18:01:20.606Z,4.85
2022-08-07T18:04:31.246Z,3.35
2022-08-07T18:07:20.063Z,4.53
2022-08-07T18:10:05.675Z,6.83
2022-08-07T18:12:59.416Z,4.15
2022-08-07T18:15:37.646Z,6.20
2022-08-07T18:18:47.542Z,7.13
2022-08-07T18:21:37.300Z,5.55
2022-08-07T18:23:58.965Z,6.33
2022-08-07T18:27:11.457Z,7.00
2022-08-07T18:30:31.818Z,7.00
2022-08-07T18:33:15.840Z,5.78
2022-08-07T18:36:06.076Z,5.60
2022-08-07T18:38:57.910Z,7.43
2022-08-07T18:41:52.987Z,3.90
2022-08-07T18:45:44.695Z,7.88
2022-08-07T18:48:10.522Z,4.93
2022-08-07T18:52:37.410Z,6.82
2022-08-07T18:54:53.872Z,3.63
2022-08-07T18:58:02.520Z,5.95
2022-08-07T19:00:53.764Z,6.25
2022-08-07T19:03:37.466Z,5.35
2022-08-07T19:06:18.230Z,9.95
2022-08-07T19:09:00.096Z,4.53
2022-08-07T19:11:37.380Z,5.07
2022-08-07T19:14:24.185Z,8.10
2022-08-07T19:17:04.320Z,6.75
2022-08-07T19:20:06.717Z,10.50
2022-08-07T19:23:18.354Z,3.57
2022-08-07T19:26:23.973Z,6.28
2022-08-07T19:30:54.780Z,8.15
2022-08-07T19:32:03.441Z,7.93
2022-08-07T19:34:34.363Z,10.02
2022-08-07T19:37:10.259Z,6.63
2022-08-07T19:39:57.907Z,12.23
2022-08-07T19:42:31.012Z,8.80
2022-08-07T19:45:08.488Z,7.72
2022-08-07T19:47:42.190Z,8.20
2022-08-07T19:50:44.414Z,5.90
2022-08-07T19:52:58.693Z,8.30
2022-08-07T19:55:57.925Z,6.80
2022-08-07T19:58:27.921Z,6.10
2022-08-07T20:00:57.050Z,7.95
2022-08-07T20:03:35.752Z,9.80
2022-08-07T20:06:04.636Z,7.18
2022-08-07T20:08:39.379Z,6.20
2022-08-07T20:11:34.314Z,6.55
2022-08-07T20:14:07.283Z,9.10
2022-08-07T20:16:45.470Z,7.33
2022-08-07T20:19:13.709Z,9.23
2022-08-07T20:21:47.346Z,7.55
2022-08-07T20:24:32.879Z,8.15
2022-08-07T20:27:03.151Z,6.85
2022-08-07T20:29:48.883Z,7.43
2022-08-07T20:32:39.828Z,7.43
2022-08-07T20:35:12.600Z,11.93
2022-08-07T20:37:58.277Z,11.98
2022-08-07T20:40:31.622Z,9.43
2022-08-07T20:43:09.599Z,7.47
2022-08-07T20:46:28.047Z,7.72
2022-08-07T20:48:34.469Z,15.32
2022-08-07T20:51:04.269Z,11.65
2022-08-07T20:54:03.637Z,8.30
2022-08-07T20:56:29.097Z,8.93
2022-08-07T20:59:01.316Z,6.57
2022-08-07T21:01:45.245Z,8.75
2022-08-07T21:04:22.755Z,7.03
2022-08-07T21:06:56.617Z,11.65
2022-08-07T21:09:30.066Z,7.10
2022-08-07T21:12:25.923Z,7.72
2022-08-07T21:14:58.613Z,12.10
2022-08-07T21:18:03.234Z,10.68
2022-08-07T21:20:26.451Z,6.13
2022-08-07T21:23:07.653Z,6.33
2022-08-07T21:25:56.898Z,8.05
2022-08-07T21:28:48.544Z,8.40
2022-08-07T21:31:49.741Z,6.78
2022-08-07T21:34:46.282Z,8.18
2022-08-07T21:37:25.864Z,8.93
2022-08-07T21:40:02.163Z,9.23
2022-08-07T21:42:46.580Z,10.68
2022-08-07T21:46:08.776Z,9.35
2022-08-07T21:48:56.437Z,7.93
2022-08-07T21:51:51.744Z,8.17
2022-08-07T21:54:55.409Z,5.35
2022-08-07T21:57:44.876Z,11.80
2022-08-07T22:00:25.163Z,8.82
2022-08-07T22:03:31.486Z,8.43
2022-08-07T22:06:07.590Z,6.63
2022-08-07T22:09:07.883Z,8.20
2022-08-07T22:12:05.071Z,6.88
2022-08-07T22:14:36.556Z,5.35
2022-08-07T22:17:06.351Z,6.85
2022-08-07T22:19:57.422Z,6.80
2022-08-07T22:22:30.478Z,8.02
2022-08-07T22:25:12.713Z,6.68
2022-08-07T22:28:29.662Z,7.60
2022-08-07T22:31:00.556Z,6.43
2022-08-07T22:33:56.593Z,7.53
2022-08-07T22:36:57.927Z,8.68
2022-08-07T22:39:53.111Z,5.90
2022-08-07T22:42:25.999Z,7.78
2022-08-07T22:46:04.047Z,6.35
2022-08-07T22:48:54.731Z,4.87
2022-08-07T22:51:14.980Z,3.97
2022-08-07T22:54:19.609Z,7.85
2022-08-07T22:57:21.137Z,4.30
2022-08-07T22:59:58.690Z,6.68
2022-08-07T23:03:09.149Z,6.47
2022-08-07T23:06:15.518Z,5.80
2022-08-07T23:10:03.514Z,7.03
2022-08-07T23:12:04.965Z,4.30
2022-08-07T23:14:59.451Z,6.80
2022-08-07T23:17:35.988Z,4.43
2022-08-07T23:20:40.719Z,6.30
2022-08-07T23:24:05.534Z,4.32
2022-08-07T23:26:50.068Z,3.40
2022-08-07T23:30:37.670Z,6.72
2022-08-07T23:34:34.604Z,4.33
2022-08-07T23:36:28.833Z,4.57
2022-08-07T23:39:22.054Z,6.45
2022-08-07T23:42:21.655Z,5.03
2022-08-07T23:45:15.142Z,4.18
2022-08-07T23:48:17.108Z,3.80
2022-08-07T23:51:00.730Z,5.43
2022-08-07T23:53:54.249Z,3.75
2022-08-07T23:56:53.973Z,6.40
